sensor_id;sensor_type;location;lat;lon;timestamp;temperature;humidity
65239;SHT30;51827;51.186;6.926;2022-12-18T00:00:09;18.28;47.58
65239;SHT30;51827;51.186;6.926;2022-12-18T00:01:24;18.27;47.61
65239;SHT30;51827;51.186;6.926;2022-12-18T00:02:25;18.30;47.58
65239;SHT30;51827;51.186;6.926;2022-12-18T00:03:25;18.25;47.64
65239;SHT30;51827;51.186;6.926;2022-12-18T00:04:27;18.27;47.63
65239;SHT30;51827;51.186;6.926;2022-12-18T00:05:27;18.27;47.55
65239;SHT30;51827;51.186;6.926;2022-12-18T00:06:28;18.30;47.53
65239;SHT30;51827;51.186;6.926;2022-12-18T00:07:29;18.27;47.58
65239;SHT30;51827;51.186;6.926;2022-12-18T00:08:29;18.28;47.57
65239;SHT30;51827;51.186;6.926;2022-12-18T00:09:29;18.25;47.59
65239;SHT30;51827;51.186;6.926;2022-12-18T00:10:30;18.31;47.59
65239;SHT30;51827;51.186;6.926;2022-12-18T00:11:30;18.27;47.59
65239;SHT30;51827;51.186;6.926;2022-12-18T00:12:31;18.25;47.56
65239;SHT30;51827;51.186;6.926;2022-12-18T00:13:31;18.30;47.56
65239;SHT30;51827;51.186;6.926;2022-12-18T00:14:32;18.27;47.58
65239;SHT30;51827;51.186;6.926;2022-12-18T00:15:36;18.28;47.60
65239;SHT30;51827;51.186;6.926;2022-12-18T00:16:37;18.30;47.58
65239;SHT30;51827;51.186;6.926;2022-12-18T00:17:37;18.28;47.57
65239;SHT30;51827;51.186;6.926;2022-12-18T00:18:38;18.25;47.54
65239;SHT30;51827;51.186;6.926;2022-12-18T00:19:38;18.31;47.56
65239;SHT30;51827;51.186;6.926;2022-12-18T00:20:39;18.28;47.58
65239;SHT30;51827;51.186;6.926;2022-12-18T00:21:40;18.27;47.56
65239;SHT30;51827;51.186;6.926;2022-12-18T00:22:41;18.30;47.56
65239;SHT30;51827;51.186;6.926;2022-12-18T00:23:43;18.27;47.56
65239;SHT30;51827;51.186;6.926;2022-12-18T00:24:43;18.27;47.59
65239;SHT30;51827;51.186;6.926;2022-12-18T00:25:43;18.27;47.51
65239;SHT30;51827;51.186;6.926;2022-12-18T00:26:44;18.28;47.51
65239;SHT30;51827;51.186;6.926;2022-12-18T00:27:44;18.25;47.54
65239;SHT30;51827;51.186;6.926;2022-12-18T00:28:45;18.28;47.53
65239;SHT30;51827;51.186;6.926;2022-12-18T00:29:45;18.28;47.55
65239;SHT30;51827;51.186;6.926;2022-12-18T00:30:45;18.27;47.54
65239;SHT30;51827;51.186;6.926;2022-12-18T00:31:46;18.28;47.49
65239;SHT30;51827;51.186;6.926;2022-12-18T00:32:46;18.27;47.51
65239;SHT30;51827;51.186;6.926;2022-12-18T00:33:47;18.27;47.54
65239;SHT30;51827;51.186;6.926;2022-12-18T00:34:47;18.27;47.56
65239;SHT30;51827;51.186;6.926;2022-12-18T00:35:47;18.27;47.53
65239;SHT30;51827;51.186;6.926;2022-12-18T00:36:48;18.28;47.52
65239;SHT30;51827;51.186;6.926;2022-12-18T00:37:48;18.27;47.50
65239;SHT30;51827;51.186;6.926;2022-12-18T00:38:49;18.30;47.53
65239;SHT30;51827;51.186;6.926;2022-12-18T00:39:49;18.28;47.51
65239;SHT30;51827;51.186;6.926;2022-12-18T00:40:49;18.30;47.51
65239;SHT30;51827;51.186;6.926;2022-12-18T00:41:49;18.28;47.49
65239;SHT30;51827;51.186;6.926;2022-12-18T00:42:50;18.28;47.48
65239;SHT30;51827;51.186;6.926;2022-12-18T00:43:50;18.25;47.46
65239;SHT30;51827;51.186;6.926;2022-12-18T00:44:50;18.27;47.46
65239;SHT30;51827;51.186;6.926;2022-12-18T00:45:50;18.27;47.44
65239;SHT30;51827;51.186;6.926;2022-12-18T00:46:51;18.28;47.51
65239;SHT30;51827;51.186;6.926;2022-12-18T00:47:51;18.28;47.49
65239;SHT30;51827;51.186;6.926;2022-12-18T00:48:51;18.28;47.48
65239;SHT30;51827;51.186;6.926;2022-12-18T00:49:51;18.25;47.46
65239;SHT30;51827;51.186;6.926;2022-12-18T00:50:52;18.27;47.44
65239;SHT30;51827;51.186;6.926;2022-12-18T00:51:55;18.25;47.45
65239;SHT30;51827;51.186;6.926;2022-12-18T00:52:55;18.27;47.49
65239;SHT30;51827;51.186;6.926;2022-12-18T00:53:56;18.25;47.49
65239;SHT30;51827;51.186;6.926;2022-12-18T00:54:56;18.25;47.49
65239;SHT30;51827;51.186;6.926;2022-12-18T00:55:56;18.27;47.48
65239;SHT30;51827;51.186;6.926;2022-12-18T00:56:56;18.30;47.45
65239;SHT30;51827;51.186;6.926;2022-12-18T00:57:56;18.27;47.47
65239;SHT30;51827;51.186;6.926;2022-12-18T00:58:57;18.28;47.45
65239;SHT30;51827;51.186;6.926;2022-12-18T00:59:57;18.28;47.44
65239;SHT30;51827;51.186;6.926;2022-12-18T01:00:57;18.28;47.43
65239;SHT30;51827;51.186;6.926;2022-12-18T01:01:57;18.27;47.44
65239;SHT30;51827;51.186;6.926;2022-12-18T01:02:58;18.27;47.45
65239;SHT30;51827;51.186;6.926;2022-12-18T01:04:00;18.27;47.45
65239;SHT30;51827;51.186;6.926;2022-12-18T01:05:01;18.31;47.40
65239;SHT30;51827;51.186;6.926;2022-12-18T01:06:09;18.28;47.46
65239;SHT30;51827;51.186;6.926;2022-12-18T01:07:09;18.28;47.45
65239;SHT30;51827;51.186;6.926;2022-12-18T01:08:10;18.27;47.47
65239;SHT30;51827;51.186;6.926;2022-12-18T01:09:10;18.27;47.44
65239;SHT30;51827;51.186;6.926;2022-12-18T01:10:11;18.28;47.47
65239;SHT30;51827;51.186;6.926;2022-12-18T01:11:17;18.25;47.44
65239;SHT30;51827;51.186;6.926;2022-12-18T01:12:17;18.27;47.50
65239;SHT30;51827;51.186;6.926;2022-12-18T01:13:17;18.24;47.52
65239;SHT30;51827;51.186;6.926;2022-12-18T01:14:18;18.27;47.51
65239;SHT30;51827;51.186;6.926;2022-12-18T01:15:18;18.25;47.49
65239;SHT30;51827;51.186;6.926;2022-12-18T01:16:19;18.27;47.50
65239;SHT30;51827;51.186;6.926;2022-12-18T01:17:21;18.25;47.44
65239;SHT30;51827;51.186;6.926;2022-12-18T01:18:21;18.28;47.50
65239;SHT30;51827;51.186;6.926;2022-12-18T01:19:21;18.27;47.52
65239;SHT30;51827;51.186;6.926;2022-12-18T01:20:22;18.28;47.53
65239;SHT30;51827;51.186;6.926;2022-12-18T01:21:23;18.25;47.53
65239;SHT30;51827;51.186;6.926;2022-12-18T01:22:24;18.27;47.54
65239;SHT30;51827;51.186;6.926;2022-12-18T01:23:24;18.25;47.51
65239;SHT30;51827;51.186;6.926;2022-12-18T01:24:24;18.24;47.53
65239;SHT30;51827;51.186;6.926;2022-12-18T01:25:25;18.25;47.54
65239;SHT30;51827;51.186;6.926;2022-12-18T01:26:25;18.28;47.57
65239;SHT30;51827;51.186;6.926;2022-12-18T01:27:26;18.24;47.61
65239;SHT30;51827;51.186;6.926;2022-12-18T01:28:26;18.25;47.53
65239;SHT30;51827;51.186;6.926;2022-12-18T01:29:26;18.21;47.56
65239;SHT30;51827;51.186;6.926;2022-12-18T01:30:26;18.24;47.60
65239;SHT30;51827;51.186;6.926;2022-12-18T01:31:30;18.22;47.54
65239;SHT30;51827;51.186;6.926;2022-12-18T01:32:31;18.22;47.57
65239;SHT30;51827;51.186;6.926;2022-12-18T01:33:31;18.24;47.56
65239;SHT30;51827;51.186;6.926;2022-12-18T01:34:31;18.25;47.56
65239;SHT30;51827;51.186;6.926;2022-12-18T01:35:32;18.27;47.54
65239;SHT30;51827;51.186;6.926;2022-12-18T01:36:34;18.22;47.49
65239;SHT30;51827;51.186;6.926;2022-12-18T01:37:35;18.25;47.52
65239;SHT30;51827;51.186;6.926;2022-12-18T01:38:35;18.25;47.49
65239;SHT30;51827;51.186;6.926;2022-12-18T01:39:35;18.28;47.51
65239;SHT30;51827;51.186;6.926;2022-12-18T01:40:36;18.25;47.47
65239;SHT30;51827;51.186;6.926;2022-12-18T01:41:36;18.24;47.52
65239;SHT30;51827;51.186;6.926;2022-12-18T01:42:37;18.25;47.49
65239;SHT30;51827;51.186;6.926;2022-12-18T01:45:20;18.25;47.47
65239;SHT30;51827;51.186;6.926;2022-12-18T01:46:23;18.28;47.50
65239;SHT30;51827;51.186;6.926;2022-12-18T01:47:47;18.25;47.45
65239;SHT30;51827;51.186;6.926;2022-12-18T01:48:50;18.24;47.49
65239;SHT30;51827;51.186;6.926;2022-12-18T01:49:52;18.27;47.46
65239;SHT30;51827;51.186;6.926;2022-12-18T01:50:52;18.27;47.45
65239;SHT30;51827;51.186;6.926;2022-12-18T01:51:52;18.27;47.48
65239;SHT30;51827;51.186;6.926;2022-12-18T01:52:59;18.24;47.46
65239;SHT30;51827;51.186;6.926;2022-12-18T01:54:00;18.27;47.46
65239;SHT30;51827;51.186;6.926;2022-12-18T01:55:02;18.28;47.48
65239;SHT30;51827;51.186;6.926;2022-12-18T01:56:03;18.25;47.42
65239;SHT30;51827;51.186;6.926;2022-12-18T01:57:04;18.25;47.44
65239;SHT30;51827;51.186;6.926;2022-12-18T01:58:04;18.25;47.45
65239;SHT30;51827;51.186;6.926;2022-12-18T01:59:06;18.25;47.49
65239;SHT30;51827;51.186;6.926;2022-12-18T02:00:14;18.25;47.44
65239;SHT30;51827;51.186;6.926;2022-12-18T02:01:15;18.27;47.41
65239;SHT30;51827;51.186;6.926;2022-12-18T02:02:16;18.25;47.43
65239;SHT30;51827;51.186;6.926;2022-12-18T02:03:16;18.27;47.43
65239;SHT30;51827;51.186;6.926;2022-12-18T02:04:25;18.24;47.47
65239;SHT30;51827;51.186;6.926;2022-12-18T02:06:45;18.25;47.47
65239;SHT30;51827;51.186;6.926;2022-12-18T02:08:16;18.22;47.44
65239;SHT30;51827;51.186;6.926;2022-12-18T02:09:24;18.24;47.49
65239;SHT30;51827;51.186;6.926;2022-12-18T02:10:34;18.24;47.48
65239;SHT30;51827;51.186;6.926;2022-12-18T02:14:43;18.24;47.47
65239;SHT30;51827;51.186;6.926;2022-12-18T02:15:53;18.22;47.48
65239;SHT30;51827;51.186;6.926;2022-12-18T02:17:03;18.22;47.48
65239;SHT30;51827;51.186;6.926;2022-12-18T02:18:08;18.24;47.48
65239;SHT30;51827;51.186;6.926;2022-12-18T02:19:40;18.22;47.47
65239;SHT30;51827;51.186;6.926;2022-12-18T02:20:47;18.21;47.49
65239;SHT30;51827;51.186;6.926;2022-12-18T02:24:29;18.22;47.45
65239;SHT30;51827;51.186;6.926;2022-12-18T02:26:57;18.20;47.47
65239;SHT30;51827;51.186;6.926;2022-12-18T02:28:00;18.22;47.48
65239;SHT30;51827;51.186;6.926;2022-12-18T02:29:15;18.24;47.47
65239;SHT30;51827;51.186;6.926;2022-12-18T02:30:17;18.22;47.45
65239;SHT30;51827;51.186;6.926;2022-12-18T02:31:19;18.22;47.45
65239;SHT30;51827;51.186;6.926;2022-12-18T02:32:31;18.25;47.47
65239;SHT30;51827;51.186;6.926;2022-12-18T02:33:33;18.22;47.45
65239;SHT30;51827;51.186;6.926;2022-12-18T02:34:38;18.24;47.42
65239;SHT30;51827;51.186;6.926;2022-12-18T02:35:40;18.24;47.47
65239;SHT30;51827;51.186;6.926;2022-12-18T02:36:42;18.24;47.42
65239;SHT30;51827;51.186;6.926;2022-12-18T02:37:45;18.24;47.47
65239;SHT30;51827;51.186;6.926;2022-12-18T02:38:47;18.22;47.47
65239;SHT30;51827;51.186;6.926;2022-12-18T02:39:49;18.21;47.44
65239;SHT30;51827;51.186;6.926;2022-12-18T02:40:53;18.24;47.44
65239;SHT30;51827;51.186;6.926;2022-12-18T02:41:53;18.22;47.47
65239;SHT30;51827;51.186;6.926;2022-12-18T02:42:54;18.22;47.47
65239;SHT30;51827;51.186;6.926;2022-12-18T02:43:57;18.22;47.43
65239;SHT30;51827;51.186;6.926;2022-12-18T02:44:57;18.24;47.43
65239;SHT30;51827;51.186;6.926;2022-12-18T02:45:59;18.24;47.41
65239;SHT30;51827;51.186;6.926;2022-12-18T02:47:01;18.22;47.50
65239;SHT30;51827;51.186;6.926;2022-12-18T02:48:01;18.22;47.43
65239;SHT30;51827;51.186;6.926;2022-12-18T02:50:50;18.22;47.40
65239;SHT30;51827;51.186;6.926;2022-12-18T03:02:39;18.22;47.48
65239;SHT30;51827;51.186;6.926;2022-12-18T03:03:53;18.21;47.47
65239;SHT30;51827;51.186;6.926;2022-12-18T03:05:04;18.22;47.44
65239;SHT30;51827;51.186;6.926;2022-12-18T03:06:11;18.21;47.47
65239;SHT30;51827;51.186;6.926;2022-12-18T03:07:19;18.22;47.47
65239;SHT30;51827;51.186;6.926;2022-12-18T03:08:33;18.22;47.41
65239;SHT30;51827;51.186;6.926;2022-12-18T03:09:36;18.20;47.44
65239;SHT30;51827;51.186;6.926;2022-12-18T03:10:42;18.20;47.48
65239;SHT30;51827;51.186;6.926;2022-12-18T03:11:52;18.20;47.48
65239;SHT30;51827;51.186;6.926;2022-12-18T03:13:02;18.20;47.50
65239;SHT30;51827;51.186;6.926;2022-12-18T03:14:03;18.20;47.40
65239;SHT30;51827;51.186;6.926;2022-12-18T03:15:28;18.20;47.40
65239;SHT30;51827;51.186;6.926;2022-12-18T03:16:31;18.20;47.36
65239;SHT30;51827;51.186;6.926;2022-12-18T03:17:33;18.21;47.37
65239;SHT30;51827;51.186;6.926;2022-12-18T03:18:38;18.22;47.41
65239;SHT30;51827;51.186;6.926;2022-12-18T03:19:41;18.24;47.42
65239;SHT30;51827;51.186;6.926;2022-12-18T03:20:44;18.21;47.38
65239;SHT30;51827;51.186;6.926;2022-12-18T03:21:49;18.21;47.41
65239;SHT30;51827;51.186;6.926;2022-12-18T03:22:53;18.20;47.44
65239;SHT30;51827;51.186;6.926;2022-12-18T03:23:56;18.20;47.32
65239;SHT30;51827;51.186;6.926;2022-12-18T03:24:58;18.18;47.39
65239;SHT30;51827;51.186;6.926;2022-12-18T03:26:02;18.21;47.40
65239;SHT30;51827;51.186;6.926;2022-12-18T03:27:06;18.20;47.39
65239;SHT30;51827;51.186;6.926;2022-12-18T03:28:16;18.21;47.38
65239;SHT30;51827;51.186;6.926;2022-12-18T03:29:25;18.20;47.36
65239;SHT30;51827;51.186;6.926;2022-12-18T03:30:28;18.22;47.39
65239;SHT30;51827;51.186;6.926;2022-12-18T03:31:30;18.20;47.37
65239;SHT30;51827;51.186;6.926;2022-12-18T03:32:35;18.21;47.36
65239;SHT30;51827;51.186;6.926;2022-12-18T03:33:42;18.22;47.38
65239;SHT30;51827;51.186;6.926;2022-12-18T03:34:46;18.17;47.36
65239;SHT30;51827;51.186;6.926;2022-12-18T03:35:47;18.20;47.37
65239;SHT30;51827;51.186;6.926;2022-12-18T03:36:47;18.22;47.36
65239;SHT30;51827;51.186;6.926;2022-12-18T03:37:48;18.21;47.32
65239;SHT30;51827;51.186;6.926;2022-12-18T03:38:49;18.21;47.39
65239;SHT30;51827;51.186;6.926;2022-12-18T03:39:49;18.18;47.38
65239;SHT30;51827;51.186;6.926;2022-12-18T03:44:29;18.22;47.36
65239;SHT30;51827;51.186;6.926;2022-12-18T03:45:35;18.21;47.37
65239;SHT30;51827;51.186;6.926;2022-12-18T03:47:03;18.22;47.31
65239;SHT30;51827;51.186;6.926;2022-12-18T03:49:27;18.21;47.32
65239;SHT30;51827;51.186;6.926;2022-12-18T03:50:45;18.21;47.26
65239;SHT30;51827;51.186;6.926;2022-12-18T03:52:06;18.22;47.32
65239;SHT30;51827;51.186;6.926;2022-12-18T03:53:35;18.20;47.33
65239;SHT30;51827;51.186;6.926;2022-12-18T03:54:37;18.18;47.36
65239;SHT30;51827;51.186;6.926;2022-12-18T03:55:39;18.22;47.39
65239;SHT30;51827;51.186;6.926;2022-12-18T03:56:47;18.21;47.37
65239;SHT30;51827;51.186;6.926;2022-12-18T03:57:49;18.18;47.27
65239;SHT30;51827;51.186;6.926;2022-12-18T03:58:52;18.21;47.32
65239;SHT30;51827;51.186;6.926;2022-12-18T04:00:06;18.22;47.30
65239;SHT30;51827;51.186;6.926;2022-12-18T04:01:08;18.20;47.32
65239;SHT30;51827;51.186;6.926;2022-12-18T04:02:10;18.20;47.33
65239;SHT30;51827;51.186;6.926;2022-12-18T04:03:11;18.18;47.38
65239;SHT30;51827;51.186;6.926;2022-12-18T04:04:12;18.18;47.34
65239;SHT30;51827;51.186;6.926;2022-12-18T04:05:14;18.22;47.39
65239;SHT30;51827;51.186;6.926;2022-12-18T04:06:16;18.20;47.34
65239;SHT30;51827;51.186;6.926;2022-12-18T04:07:17;18.21;47.33
65239;SHT30;51827;51.186;6.926;2022-12-18T04:08:18;18.20;47.27
65239;SHT30;51827;51.186;6.926;2022-12-18T04:09:19;18.22;47.31
65239;SHT30;51827;51.186;6.926;2022-12-18T04:10:20;18.22;47.29
65239;SHT30;51827;51.186;6.926;2022-12-18T04:11:21;18.20;47.26
65239;SHT30;51827;51.186;6.926;2022-12-18T04:12:24;18.22;47.31
65239;SHT30;51827;51.186;6.926;2022-12-18T04:13:28;18.22;47.31
65239;SHT30;51827;51.186;6.926;2022-12-18T04:14:29;18.18;47.32
65239;SHT30;51827;51.186;6.926;2022-12-18T04:15:32;18.21;47.32
65239;SHT30;51827;51.186;6.926;2022-12-18T04:16:34;18.21;47.26
65239;SHT30;51827;51.186;6.926;2022-12-18T04:17:34;18.22;47.26
65239;SHT30;51827;51.186;6.926;2022-12-18T04:18:36;18.21;47.27
65239;SHT30;51827;51.186;6.926;2022-12-18T04:19:36;18.22;47.34
65239;SHT30;51827;51.186;6.926;2022-12-18T04:20:36;18.22;47.30
65239;SHT30;51827;51.186;6.926;2022-12-18T04:21:37;18.21;47.31
65239;SHT30;51827;51.186;6.926;2022-12-18T04:22:37;18.24;47.30
65239;SHT30;51827;51.186;6.926;2022-12-18T04:23:37;18.22;47.30
65239;SHT30;51827;51.186;6.926;2022-12-18T04:24:37;18.22;47.35
65239;SHT30;51827;51.186;6.926;2022-12-18T04:25:38;18.20;47.27
65239;SHT30;51827;51.186;6.926;2022-12-18T04:26:38;18.21;47.26
65239;SHT30;51827;51.186;6.926;2022-12-18T04:27:38;18.21;47.24
65239;SHT30;51827;51.186;6.926;2022-12-18T04:28:39;18.22;47.19
65239;SHT30;51827;51.186;6.926;2022-12-18T04:29:39;18.20;47.20
65239;SHT30;51827;51.186;6.926;2022-12-18T04:30:39;18.24;47.30
65239;SHT30;51827;51.186;6.926;2022-12-18T04:31:39;18.24;47.26
65239;SHT30;51827;51.186;6.926;2022-12-18T04:32:40;18.22;47.29
65239;SHT30;51827;51.186;6.926;2022-12-18T04:33:40;18.21;47.23
65239;SHT30;51827;51.186;6.926;2022-12-18T04:34:40;18.22;47.24
65239;SHT30;51827;51.186;6.926;2022-12-18T04:35:41;18.22;47.25
65239;SHT30;51827;51.186;6.926;2022-12-18T04:36:41;18.22;47.23
65239;SHT30;51827;51.186;6.926;2022-12-18T04:37:41;18.25;47.17
65239;SHT30;51827;51.186;6.926;2022-12-18T04:38:42;18.25;47.21
65239;SHT30;51827;51.186;6.926;2022-12-18T04:39:42;18.24;47.21
65239;SHT30;51827;51.186;6.926;2022-12-18T04:40:43;18.24;47.21
65239;SHT30;51827;51.186;6.926;2022-12-18T04:41:43;18.22;47.25
65239;SHT30;51827;51.186;6.926;2022-12-18T04:42:43;18.22;47.19
65239;SHT30;51827;51.186;6.926;2022-12-18T04:43:43;18.22;47.23
65239;SHT30;51827;51.186;6.926;2022-12-18T04:44:44;18.22;47.21
65239;SHT30;51827;51.186;6.926;2022-12-18T04:45:44;18.24;47.17
65239;SHT30;51827;51.186;6.926;2022-12-18T04:46:44;18.24;47.18
65239;SHT30;51827;51.186;6.926;2022-12-18T04:47:44;18.24;47.17
65239;SHT30;51827;51.186;6.926;2022-12-18T04:48:45;18.22;47.18
65239;SHT30;51827;51.186;6.926;2022-12-18T04:49:46;18.22;47.17
65239;SHT30;51827;51.186;6.926;2022-12-18T04:50:46;18.24;47.16
65239;SHT30;51827;51.186;6.926;2022-12-18T04:51:47;18.22;47.15
65239;SHT30;51827;51.186;6.926;2022-12-18T04:52:47;18.20;47.17
65239;SHT30;51827;51.186;6.926;2022-12-18T04:53:47;18.25;47.14
65239;SHT30;51827;51.186;6.926;2022-12-18T04:54:47;18.22;47.18
65239;SHT30;51827;51.186;6.926;2022-12-18T04:55:48;18.22;47.19
65239;SHT30;51827;51.186;6.926;2022-12-18T04:56:48;18.22;47.21
65239;SHT30;51827;51.186;6.926;2022-12-18T04:57:48;18.20;47.19
65239;SHT30;51827;51.186;6.926;2022-12-18T04:58:49;18.21;47.15
65239;SHT30;51827;51.186;6.926;2022-12-18T04:59:49;18.21;47.19
65239;SHT30;51827;51.186;6.926;2022-12-18T05:00:49;18.21;47.18
65239;SHT30;51827;51.186;6.926;2022-12-18T05:01:49;18.20;47.14
65239;SHT30;51827;51.186;6.926;2022-12-18T05:02:50;18.22;47.18
65239;SHT30;51827;51.186;6.926;2022-12-18T05:03:53;18.20;47.18
65239;SHT30;51827;51.186;6.926;2022-12-18T05:04:53;18.22;47.16
65239;SHT30;51827;51.186;6.926;2022-12-18T05:05:53;18.20;47.13
65239;SHT30;51827;51.186;6.926;2022-12-18T05:06:53;18.22;47.20
65239;SHT30;51827;51.186;6.926;2022-12-18T05:07:54;18.22;47.17
65239;SHT30;51827;51.186;6.926;2022-12-18T05:08:54;18.21;47.13
65239;SHT30;51827;51.186;6.926;2022-12-18T05:09:55;18.24;47.15
65239;SHT30;51827;51.186;6.926;2022-12-18T05:11:00;18.22;47.14
65239;SHT30;51827;51.186;6.926;2022-12-18T05:12:01;18.21;47.16
65239;SHT30;51827;51.186;6.926;2022-12-18T05:13:01;18.24;47.16
65239;SHT30;51827;51.186;6.926;2022-12-18T05:14:01;18.22;47.13
65239;SHT30;51827;51.186;6.926;2022-12-18T05:15:05;18.21;47.14
65239;SHT30;51827;51.186;6.926;2022-12-18T05:16:06;18.21;47.13
65239;SHT30;51827;51.186;6.926;2022-12-18T05:17:06;18.22;47.10
65239;SHT30;51827;51.186;6.926;2022-12-18T05:18:06;18.22;47.08
65239;SHT30;51827;51.186;6.926;2022-12-18T05:19:06;18.22;47.13
65239;SHT30;51827;51.186;6.926;2022-12-18T05:20:07;18.22;47.12
65239;SHT30;51827;51.186;6.926;2022-12-18T05:21:07;18.21;47.14
65239;SHT30;51827;51.186;6.926;2022-12-18T05:22:08;18.24;47.17
65239;SHT30;51827;51.186;6.926;2022-12-18T05:23:08;18.22;47.08
65239;SHT30;51827;51.186;6.926;2022-12-18T05:24:08;18.24;47.06
65239;SHT30;51827;51.186;6.926;2022-12-18T05:25:09;18.24;47.08
65239;SHT30;51827;51.186;6.926;2022-12-18T05:26:15;18.22;47.07
65239;SHT30;51827;51.186;6.926;2022-12-18T05:27:15;18.22;47.07
65239;SHT30;51827;51.186;6.926;2022-12-18T05:28:15;18.22;47.12
65239;SHT30;51827;51.186;6.926;2022-12-18T05:29:16;18.20;47.07
65239;SHT30;51827;51.186;6.926;2022-12-18T05:30:16;18.21;47.17
65239;SHT30;51827;51.186;6.926;2022-12-18T05:31:16;18.20;47.11
65239;SHT30;51827;51.186;6.926;2022-12-18T05:32:16;18.22;47.07
65239;SHT30;51827;51.186;6.926;2022-12-18T05:33:18;18.22;47.06
65239;SHT30;51827;51.186;6.926;2022-12-18T05:34:18;18.21;47.10
65239;SHT30;51827;51.186;6.926;2022-12-18T05:35:18;18.20;47.07
65239;SHT30;51827;51.186;6.926;2022-12-18T05:36:18;18.22;47.10
65239;SHT30;51827;51.186;6.926;2022-12-18T05:37:19;18.22;47.07
65239;SHT30;51827;51.186;6.926;2022-12-18T05:38:23;18.22;47.09
65239;SHT30;51827;51.186;6.926;2022-12-18T05:39:24;18.21;47.10
65239;SHT30;51827;51.186;6.926;2022-12-18T05:40:24;18.21;47.11
65239;SHT30;51827;51.186;6.926;2022-12-18T05:41:24;18.20;47.05
65239;SHT30;51827;51.186;6.926;2022-12-18T05:42:24;18.20;47.07
65239;SHT30;51827;51.186;6.926;2022-12-18T05:43:26;18.21;47.12
65239;SHT30;51827;51.186;6.926;2022-12-18T05:44:26;18.21;47.08
65239;SHT30;51827;51.186;6.926;2022-12-18T05:45:26;18.21;47.07
65239;SHT30;51827;51.186;6.926;2022-12-18T05:46:27;18.21;47.14
65239;SHT30;51827;51.186;6.926;2022-12-18T05:47:27;18.20;47.07
65239;SHT30;51827;51.186;6.926;2022-12-18T05:48:27;18.24;47.07
65239;SHT30;51827;51.186;6.926;2022-12-18T05:49:27;18.22;47.09
65239;SHT30;51827;51.186;6.926;2022-12-18T05:50:28;18.22;47.11
65239;SHT30;51827;51.186;6.926;2022-12-18T05:51:28;18.21;47.12
65239;SHT30;51827;51.186;6.926;2022-12-18T05:52:28;18.22;47.06
65239;SHT30;51827;51.186;6.926;2022-12-18T05:53:28;18.21;47.07
65239;SHT30;51827;51.186;6.926;2022-12-18T05:54:29;18.21;47.08
65239;SHT30;51827;51.186;6.926;2022-12-18T05:55:33;18.18;47.11
65239;SHT30;51827;51.186;6.926;2022-12-18T05:56:33;18.20;47.05
65239;SHT30;51827;51.186;6.926;2022-12-18T05:57:33;18.21;47.11
65239;SHT30;51827;51.186;6.926;2022-12-18T05:58:34;18.18;47.08
65239;SHT30;51827;51.186;6.926;2022-12-18T05:59:34;18.20;47.08
65239;SHT30;51827;51.186;6.926;2022-12-18T06:00:36;18.20;47.09
65239;SHT30;51827;51.186;6.926;2022-12-18T06:01:37;18.20;47.08
65239;SHT30;51827;51.186;6.926;2022-12-18T06:02:37;18.21;47.08
65239;SHT30;51827;51.186;6.926;2022-12-18T06:03:38;18.22;47.07
65239;SHT30;51827;51.186;6.926;2022-12-18T06:04:38;18.18;47.12
65239;SHT30;51827;51.186;6.926;2022-12-18T06:05:41;18.18;47.05
65239;SHT30;51827;51.186;6.926;2022-12-18T06:06:41;18.20;47.06
65239;SHT30;51827;51.186;6.926;2022-12-18T06:07:42;18.20;47.05
65239;SHT30;51827;51.186;6.926;2022-12-18T06:08:42;18.21;47.04
65239;SHT30;51827;51.186;6.926;2022-12-18T06:09:42;18.22;47.01
65239;SHT30;51827;51.186;6.926;2022-12-18T06:10:49;18.21;47.03
65239;SHT30;51827;51.186;6.926;2022-12-18T06:11:51;18.21;47.01
65239;SHT30;51827;51.186;6.926;2022-12-18T06:12:51;18.20;47.06
65239;SHT30;51827;51.186;6.926;2022-12-18T06:13:55;18.18;47.02
65239;SHT30;51827;51.186;6.926;2022-12-18T06:14:56;18.21;47.11
65239;SHT30;51827;51.186;6.926;2022-12-18T06:15:56;18.21;47.03
65239;SHT30;51827;51.186;6.926;2022-12-18T06:16:56;18.20;46.97
65239;SHT30;51827;51.186;6.926;2022-12-18T06:17:57;18.21;47.10
65239;SHT30;51827;51.186;6.926;2022-12-18T06:19:02;18.20;46.99
65239;SHT30;51827;51.186;6.926;2022-12-18T06:20:04;18.22;47.00
65239;SHT30;51827;51.186;6.926;2022-12-18T06:21:04;18.20;47.00
65239;SHT30;51827;51.186;6.926;2022-12-18T06:22:05;18.20;47.02
65239;SHT30;51827;51.186;6.926;2022-12-18T06:23:05;18.22;46.99
65239;SHT30;51827;51.186;6.926;2022-12-18T06:24:06;18.17;46.99
65239;SHT30;51827;51.186;6.926;2022-12-18T06:25:07;18.21;47.01
65239;SHT30;51827;51.186;6.926;2022-12-18T06:26:10;18.21;47.02
65239;SHT30;51827;51.186;6.926;2022-12-18T06:27:10;18.20;47.00
65239;SHT30;51827;51.186;6.926;2022-12-18T06:28:10;18.21;46.99
65239;SHT30;51827;51.186;6.926;2022-12-18T06:29:10;18.21;46.96
65239;SHT30;51827;51.186;6.926;2022-12-18T06:30:11;18.20;46.97
65239;SHT30;51827;51.186;6.926;2022-12-18T06:31:11;18.20;47.00
65239;SHT30;51827;51.186;6.926;2022-12-18T06:32:12;18.22;46.99
65239;SHT30;51827;51.186;6.926;2022-12-18T06:33:12;18.21;46.94
65239;SHT30;51827;51.186;6.926;2022-12-18T06:34:12;18.20;46.94
65239;SHT30;51827;51.186;6.926;2022-12-18T06:35:13;18.20;47.05
65239;SHT30;51827;51.186;6.926;2022-12-18T06:36:13;18.20;46.93
65239;SHT30;51827;51.186;6.926;2022-12-18T06:37:13;18.18;46.94
65239;SHT30;51827;51.186;6.926;2022-12-18T06:38:14;18.21;46.95
65239;SHT30;51827;51.186;6.926;2022-12-18T06:39:14;18.20;46.92
65239;SHT30;51827;51.186;6.926;2022-12-18T06:40:14;18.20;46.93
65239;SHT30;51827;51.186;6.926;2022-12-18T06:41:19;18.20;46.90
65239;SHT30;51827;51.186;6.926;2022-12-18T06:42:23;18.17;46.94
65239;SHT30;51827;51.186;6.926;2022-12-18T06:43:24;18.18;46.89
65239;SHT30;51827;51.186;6.926;2022-12-18T06:44:24;18.17;46.90
65239;SHT30;51827;51.186;6.926;2022-12-18T06:45:25;18.18;46.84
65239;SHT30;51827;51.186;6.926;2022-12-18T06:46:25;18.20;46.90
65239;SHT30;51827;51.186;6.926;2022-12-18T06:47:25;18.17;46.90
65239;SHT30;51827;51.186;6.926;2022-12-18T06:48:26;18.17;46.86
65239;SHT30;51827;51.186;6.926;2022-12-18T06:49:26;18.17;46.85
65239;SHT30;51827;51.186;6.926;2022-12-18T06:50:27;18.15;46.92
65239;SHT30;51827;51.186;6.926;2022-12-18T06:51:27;18.14;46.92
65239;SHT30;51827;51.186;6.926;2022-12-18T06:52:27;18.12;46.92
65239;SHT30;51827;51.186;6.926;2022-12-18T06:53:28;18.12;46.96
65239;SHT30;51827;51.186;6.926;2022-12-18T06:54:28;18.12;46.93
65239;SHT30;51827;51.186;6.926;2022-12-18T06:55:28;18.14;46.99
65239;SHT30;51827;51.186;6.926;2022-12-18T06:56:29;18.11;47.00
65239;SHT30;51827;51.186;6.926;2022-12-18T06:57:29;18.10;47.01
65239;SHT30;51827;51.186;6.926;2022-12-18T06:58:29;18.11;47.00
65239;SHT30;51827;51.186;6.926;2022-12-18T06:59:29;18.14;47.01